Time;durP1;ratioP1;P1;durP2;ratioP2;P2;SDS_P1;SDS_P2;PMS_P1;PMS_P2;Temp;Humidity;BMP_temperature;BMP_pressure;BME280_temperature;BME280_humidity;BME280_pressure;Samples;Min_cycle;Max_cycle;Signal;HPM_P1;HPM_P2
2022/02/19 00:02:02;;;;;;;6.37;1.42;;;;;;;8.71;50.55;98324.59;2200581;79;20950;-77
2022/02/19 00:05:04;;;;;;;3.17;1.25;;;;;;;8.74;51.58;98332.13;2254085;77;21038;-76
2022/02/19 00:08:08;;;;;;;3.85;1.57;;;;;;;8.69;51.03;98349.09;2235353;79;20954;-76
2022/02/19 00:11:09;;;;;;;2.62;1.00;;;;;;;8.59;51.08;98334.92;2235760;79;21398;-76
2022/02/19 00:14:13;;;;;;;2.15;1.12;;;;;;;8.52;50.43;98343.33;2238202;79;21481;-76
2022/02/19 00:17:15;;;;;;;3.98;1.12;;;;;;;8.47;49.53;98350.51;2232214;78;22233;-77
2022/02/19 00:20:16;;;;;;;5.40;1.27;;;;;;;8.39;48.82;98352.50;2233907;78;21654;-76
2022/02/19 00:23:17;;;;;;;3.50;1.20;;;;;;;8.39;49.71;98378.93;2234575;78;21060;-76
2022/02/19 00:26:19;;;;;;;2.85;1.20;;;;;;;8.30;48.67;98367.67;2234122;78;21045;-77
2022/02/19 00:29:20;;;;;;;2.15;1.15;;;;;;;8.31;49.98;98401.03;2235431;78;21413;-76
2022/02/19 00:32:22;;;;;;;5.30;1.25;;;;;;;8.20;49.30;98405.02;2207430;79;21042;-76
2022/02/19 00:35:24;;;;;;;2.02;1.20;;;;;;;8.14;49.83;98403.16;2220337;79;21077;-77
2022/02/19 00:38:28;;;;;;;5.80;1.50;;;;;;;8.07;49.76;98410.20;2200689;78;20942;-76
2022/02/19 00:41:32;;;;;;;5.37;1.50;;;;;;;8.00;50.00;98412.81;2221728;79;21023;-76
2022/02/19 00:44:33;;;;;;;3.80;1.30;;;;;;;7.97;49.56;98421.59;2222764;79;21011;-75
2022/02/19 00:47:35;;;;;;;4.92;1.30;;;;;;;8.02;48.33;98416.05;2222863;79;21028;-75
2022/02/19 00:50:36;;;;;;;3.50;1.10;;;;;;;8.07;47.35;98419.45;2219314;79;21433;-75
2022/02/19 00:53:38;;;;;;;4.53;1.37;;;;;;;8.08;48.41;98441.73;2222117;79;20962;-75
2022/02/19 00:56:39;;;;;;;6.78;1.85;;;;;;;8.04;48.69;98440.46;2220100;79;21073;-75
2022/02/19 00:59:44;;;;;;;5.33;1.67;;;;;;;8.06;47.46;98405.94;2220795;79;21080;-77
2022/02/19 01:02:45;;;;;;;3.37;1.10;;;;;;;8.15;46.77;98421.95;2217236;78;21549;-77
2022/02/19 01:05:51;;;;;;;3.55;1.27;;;;;;;8.19;46.65;98441.68;2212647;79;21481;-75
2022/02/19 01:08:53;;;;;;;2.25;1.30;;;;;;;8.16;47.54;98449.19;2219360;79;20998;-75
2022/02/19 01:11:55;;;;;;;2.20;1.10;;;;;;;8.07;47.48;98432.16;2214782;79;20954;-75
2022/02/19 01:15:00;;;;;;;4.37;1.35;;;;;;;8.00;47.54;98451.62;2216642;79;21564;-75
2022/02/19 01:18:01;;;;;;;5.20;1.40;;;;;;;7.93;47.77;98460.78;2232473;79;21540;-77
2022/02/19 01:21:03;;;;;;;3.65;1.50;;;;;;;7.85;47.53;98439.79;2233283;79;21039;-76
2022/02/19 01:24:05;;;;;;;4.03;1.72;;;;;;;7.79;47.87;98473.05;2234948;79;21503;-75
2022/02/19 01:27:07;;;;;;;7.15;1.52;;;;;;;7.77;47.20;98451.80;2228454;78;21015;-76
2022/02/19 01:30:13;;;;;;;8.90;1.70;;;;;;;7.76;47.19;98435.14;2233052;78;21089;-75
2022/02/19 01:33:14;;;;;;;2.20;1.27;;;;;;;7.80;47.25;98468.10;2230478;78;21064;-75
2022/02/19 01:36:19;;;;;;;5.35;0.90;;;;;;;7.78;46.67;98449.49;2232124;78;20991;-75
2022/02/19 01:39:19;;;;;;;3.37;1.42;;;;;;;7.73;46.89;98462.44;2230546;78;21519;-75
2022/02/19 01:42:23;;;;;;;2.50;1.32;;;;;;;7.69;47.13;98454.59;2233693;78;20979;-76
2022/02/19 01:45:25;;;;;;;4.83;1.50;;;;;;;7.66;47.06;98477.38;2232055;78;20990;-75
2022/02/19 01:48:27;;;;;;;4.90;1.27;;;;;;;7.58;47.30;98470.42;2231569;78;21096;-77
2022/02/19 01:51:34;;;;;;;3.25;1.10;;;;;;;7.52;47.56;98473.31;2202234;78;21434;-76
2022/02/19 01:54:40;;;;;;;6.30;1.20;;;;;;;7.47;48.11;98481.47;2236942;78;20983;-76
2022/02/19 01:57:44;;;;;;;3.40;1.12;;;;;;;7.39;48.44;98492.95;2231884;78;21026;-75
2022/02/19 02:01:04;;;;;;;3.52;1.57;;;;;;;7.35;48.57;98490.38;2228860;78;20971;-76
2022/02/19 02:04:10;;;;;;;5.05;1.52;;;;;;;7.31;49.11;98497.83;2225663;78;21051;-76
2022/02/19 02:07:12;;;;;;;4.12;1.22;;;;;;;7.28;49.06;98503.98;2233906;78;21070;-76
2022/02/19 02:10:14;;;;;;;3.92;1.37;;;;;;;7.24;49.20;98504.86;2236089;78;20985;-76
2022/02/19 02:13:16;;;;;;;5.87;1.90;;;;;;;7.22;48.33;98498.13;2231354;78;21065;-76
2022/02/19 02:16:18;;;;;;;6.78;1.60;;;;;;;7.21;47.95;98498.64;2233326;78;21037;-78
2022/02/19 02:19:30;;;;;;;6.03;1.50;;;;;;;7.21;47.57;98500.43;2230654;78;21045;-76
2022/02/19 02:22:35;;;;;;;3.90;1.40;;;;;;;7.17;48.63;98529.81;2232824;78;21457;-76
2022/02/19 02:25:37;;;;;;;4.65;1.47;;;;;;;7.10;48.39;98522.34;2237005;78;20987;-76
2022/02/19 02:28:39;;;;;;;4.95;1.40;;;;;;;7.12;48.10;98526.94;2234556;78;21099;-77
2022/02/19 02:31:43;;;;;;;2.90;1.65;;;;;;;7.12;48.23;98531.37;2235322;78;21034;-76
2022/02/19 02:34:49;;;;;;;4.35;1.52;;;;;;;7.12;48.61;98543.23;2238085;78;21021;-78
2022/02/19 02:37:51;;;;;;;3.95;1.60;;;;;;;7.10;47.48;98540.80;2231283;78;21044;-77
2022/02/19 02:40:53;;;;;;;3.72;1.30;;;;;;;7.13;47.64;98550.17;2238426;78;21030;-76
2022/02/19 02:44:01;;;;;;;5.22;1.65;;;;;;;7.15;47.61;98554.27;2234778;78;21100;-77
2022/02/19 02:47:03;;;;;;;6.92;1.72;;;;;;;7.22;45.96;98554.84;2235846;78;21001;-76
2022/02/19 02:50:07;;;;;;;9.15;1.50;;;;;;;7.24;46.85;98577.41;2235747;78;21069;-76
2022/02/19 02:53:09;;;;;;;4.17;1.85;;;;;;;7.18;46.16;98580.28;2234562;78;21061;-76
2022/02/19 02:56:17;;;;;;;5.60;1.50;;;;;;;7.17;46.10;98589.17;2232602;78;21022;-77
2022/02/19 02:59:16;;;;;;;3.95;1.50;;;;;;;7.10;46.04;98585.64;2205004;78;21072;-77
2022/02/19 03:02:18;;;;;;;3.58;1.50;;;;;;;7.01;45.48;98576.66;2235068;78;21092;-76
2022/02/19 03:05:21;;;;;;;8.40;1.37;;;;;;;6.95;44.79;98584.80;2226172;78;20989;-76
2022/02/19 03:08:24;;;;;;;4.78;1.42;;;;;;;6.92;45.01;98600.48;2220586;79;21061;-77
2022/02/19 03:11:25;;;;;;;5.25;1.37;;;;;;;6.87;45.01;98596.74;2223858;79;21077;-78
2022/02/19 03:14:27;;;;;;;3.77;1.35;;;;;;;6.78;45.84;98599.14;2225508;79;21047;-77
2022/02/19 03:17:36;;;;;;;7.95;1.92;;;;;;;6.62;45.55;98598.81;2192995;79;21057;-76
2022/02/19 03:20:39;;;;;;;4.45;1.72;;;;;;;6.58;44.89;98593.05;2227141;79;21010;-77
2022/02/19 03:23:40;;;;;;;6.28;1.77;;;;;;;6.59;44.31;98598.67;2221091;79;21038;-79
2022/02/19 03:26:43;;;;;;;6.28;2.30;;;;;;;6.56;43.46;98606.09;2221424;79;21057;-77
2022/02/19 03:29:46;;;;;;;5.65;1.32;;;;;;;6.53;43.19;98603.31;2222693;79;21065;-76
2022/02/19 03:32:49;;;;;;;2.72;1.12;;;;;;;6.51;43.38;98609.27;2225827;79;21029;-77
2022/02/19 03:35:54;;;;;;;4.30;1.82;;;;;;;6.43;43.10;98596.98;2221443;79;21110;-77
2022/02/19 03:38:56;;;;;;;4.92;1.50;;;;;;;6.40;43.01;98613.64;2221943;79;21762;-77
2022/02/19 03:42:01;;;;;;;6.25;1.65;;;;;;;6.35;43.13;98615.48;2219902;79;20951;-78
2022/02/19 03:45:12;;;;;;;6.42;1.50;;;;;;;6.28;43.83;98637.77;2227041;79;20990;-77
2022/02/19 03:48:14;;;;;;;5.45;1.45;;;;;;;6.15;44.20;98637.52;2225062;79;21017;-78
2022/02/19 03:51:15;;;;;;;5.12;1.45;;;;;;;6.06;44.23;98650.42;2224967;79;20997;-76
2022/02/19 03:54:19;;;;;;;3.02;1.32;;;;;;;6.07;43.16;98641.52;2225123;79;21585;-77
2022/02/19 03:57:23;;;;;;;4.37;1.40;;;;;;;6.18;44.03;98647.70;2225538;79;21121;-77
2022/02/19 04:00:26;;;;;;;5.08;1.60;;;;;;;6.14;44.42;98657.43;2220821;79;21046;-79
2022/02/19 04:03:29;;;;;;;4.60;1.65;;;;;;;6.03;44.62;98650.77;2219819;79;21107;-77
2022/02/19 04:06:30;;;;;;;3.55;1.22;;;;;;;5.95;44.44;98657.39;2195164;80;20943;-77
2022/02/19 04:09:34;;;;;;;6.22;1.57;;;;;;;5.96;45.10;98674.81;2202846;80;21053;-76
2022/02/19 04:12:38;;;;;;;3.50;1.25;;;;;;;5.89;44.99;98682.56;2198293;80;21014;-77
2022/02/19 04:15:41;;;;;;;6.08;1.50;;;;;;;5.85;45.32;98674.67;2177294;81;21074;-79
2022/02/19 04:18:43;;;;;;;5.03;1.52;;;;;;;5.81;45.34;98683.41;2179281;81;21104;-77
2022/02/19 04:21:45;;;;;;;6.60;1.40;;;;;;;5.85;45.26;98678.11;2218611;79;20986;-76
2022/02/19 04:24:49;;;;;;;2.80;1.02;;;;;;;5.87;45.32;98686.36;2191586;79;21037;-76
2022/02/19 04:28:03;;;;;;;5.85;1.77;;;;;;;5.84;45.05;98684.38;2201639;80;21033;-77
2022/02/19 04:31:05;;;;;;;4.45;1.62;;;;;;;5.84;45.24;98684.38;2176034;80;21039;-76
2022/02/19 04:34:08;;;;;;;5.15;1.57;;;;;;;5.88;44.97;98691.94;2195989;80;20993;-76
2022/02/19 04:37:10;;;;;;;3.10;1.47;;;;;;;5.87;44.93;98687.67;2191285;80;21647;-76
2022/02/19 04:40:13;;;;;;;3.92;1.10;;;;;;;5.89;44.83;98693.59;2197001;79;21674;-76
2022/02/19 04:43:15;;;;;;;5.28;1.45;;;;;;;5.87;44.92;98690.30;2194370;80;21002;-76
2022/02/19 04:46:19;;;;;;;6.70;1.82;;;;;;;5.90;44.70;98691.27;2196422;80;21086;-77
2022/02/19 04:49:20;;;;;;;5.87;1.55;;;;;;;5.81;44.83;98683.41;2197873;80;21034;-76
2022/02/19 04:52:22;;;;;;;5.58;1.60;;;;;;;5.78;44.84;98673.73;2200505;80;21064;-77
2022/02/19 04:55:24;;;;;;;4.10;1.47;;;;;;;5.74;44.83;98686.89;2219121;79;20906;-77
2022/02/19 04:58:30;;;;;;;5.45;1.42;;;;;;;5.68;45.20;98679.18;2174439;81;21568;-77
2022/02/19 05:01:33;;;;;;;7.33;1.65;;;;;;;5.65;44.80;98674.26;2193205;80;21576;-77
2022/02/19 05:04:39;;;;;;;5.60;1.92;;;;;;;5.63;44.96;98688.08;2215813;79;21094;-77
2022/02/19 05:07:44;;;;;;;7.37;1.55;;;;;;;5.60;44.95;98689.73;2235861;79;21031;-77
2022/02/19 05:10:48;;;;;;;5.20;1.85;;;;;;;5.58;44.14;98684.66;2237241;79;21025;-77
2022/02/19 05:13:51;;;;;;;5.97;1.55;;;;;;;5.66;44.75;98687.77;2235087;79;21103;-76
2022/02/19 05:16:53;;;;;;;5.25;1.47;;;;;;;5.62;45.00;98686.45;2237257;79;20994;-76
2022/02/19 05:19:56;;;;;;;6.85;1.40;;;;;;;5.60;44.82;98688.41;2237570;78;21549;-76
2022/02/19 05:22:58;;;;;;;4.28;1.65;;;;;;;5.58;44.58;98690.42;2237204;79;21022;-77
2022/02/19 05:26:03;;;;;;;3.60;1.57;;;;;;;5.55;44.98;98696.02;2236641;79;20948;-73
2022/02/19 05:29:05;;;;;;;4.40;2.10;;;;;;;5.51;44.84;98694.70;2237758;79;21112;-75
2022/02/19 05:32:07;;;;;;;4.42;1.52;;;;;;;5.53;44.35;98664.61;2233957;79;21069;-75
2022/02/19 05:35:13;;;;;;;8.98;2.08;;;;;;;5.59;44.98;98696.00;2237642;79;21583;-76
2022/02/19 05:38:16;;;;;;;5.03;1.77;;;;;;;5.61;44.44;98699.28;2234769;79;21453;-76
2022/02/19 05:41:22;;;;;;;5.15;1.52;;;;;;;5.61;44.92;98709.31;2233281;79;21021;-79
2022/02/19 05:44:26;;;;;;;6.15;1.50;;;;;;;5.52;45.06;98709.02;2217728;79;21045;-76
2022/02/19 05:47:29;;;;;;;6.72;1.30;;;;;;;5.43;45.03;98697.34;2236652;79;21037;-77
2022/02/19 05:50:34;;;;;;;8.60;1.92;;;;;;;5.46;45.31;98715.42;2234825;79;21091;-75
2022/02/19 05:53:43;;;;;;;4.45;1.70;;;;;;;5.38;44.85;98717.11;2230839;78;22341;-75
2022/02/19 05:56:46;;;;;;;9.88;2.15;;;;;;;5.38;44.96;98722.36;2238616;79;21102;-75
2022/02/19 05:59:50;;;;;;;5.12;1.95;;;;;;;5.40;45.39;98740.09;2238325;79;20987;-74
2022/02/19 06:02:52;;;;;;;7.22;1.85;;;;;;;5.43;45.47;98742.07;2235895;78;21014;-75
2022/02/19 06:05:54;;;;;;;4.95;1.50;;;;;;;5.45;44.89;98753.25;2236763;79;21887;-76
2022/02/19 06:08:58;;;;;;;6.12;1.87;;;;;;;5.48;43.84;98762.94;2233698;79;21647;-76
2022/02/19 06:12:02;;;;;;;5.62;1.32;;;;;;;5.59;42.75;98777.06;2234685;78;21028;-78
2022/02/19 06:15:08;;;;;;;6.58;1.70;;;;;;;5.65;42.42;98776.89;2226213;78;21036;-75
2022/02/19 06:18:13;;;;;;;6.53;1.30;;;;;;;5.65;42.38;98786.10;2235924;78;21970;-76
2022/02/19 06:21:19;;;;;;;6.90;1.50;;;;;;;5.65;42.44;98790.55;2235931;78;20978;-76
2022/02/19 06:24:21;;;;;;;4.10;1.10;;;;;;;5.66;42.92;98806.66;2236747;78;21028;-76
2022/02/19 06:27:22;;;;;;;3.10;1.30;;;;;;;5.73;43.15;98809.77;2237675;78;20995;-77
2022/02/19 06:30:26;;;;;;;4.05;1.35;;;;;;;5.92;42.67;98813.04;2235515;78;20994;-76
2022/02/19 06:33:29;;;;;;;4.10;1.42;;;;;;;6.14;42.87;98822.03;2232685;78;21333;-76
2022/02/19 06:36:34;;;;;;;3.72;1.10;;;;;;;6.34;42.28;98821.98;2228576;78;21607;-76
2022/02/19 06:39:37;;;;;;;5.80;1.60;;;;;;;6.47;41.90;98837.22;2201671;79;21585;-74
2022/02/19 06:42:39;;;;;;;4.72;1.67;;;;;;;6.62;41.93;98850.02;2216255;79;21448;-74
2022/02/19 06:45:44;;;;;;;5.78;1.95;;;;;;;6.76;41.77;98862.12;2225999;78;21149;-75
2022/02/19 06:48:46;;;;;;;5.45;1.70;;;;;;;6.89;42.31;98871.61;2253675;77;21001;-78
2022/02/19 06:51:48;;;;;;;7.67;2.05;;;;;;;7.01;41.86;98876.84;2217925;79;20951;-74
2022/02/19 06:54:52;;;;;;;8.33;1.85;;;;;;;7.00;41.94;98867.77;2217874;79;21094;-77
2022/02/19 06:57:54;;;;;;;4.00;1.60;;;;;;;6.99;42.07;98878.83;2214097;79;21045;-75
2022/02/19 07:00:56;;;;;;;7.97;1.77;;;;;;;7.26;42.20;98880.11;2218619;79;21086;-71
2022/02/19 07:04:00;;;;;;;6.90;1.70;;;;;;;7.29;41.97;98905.33;2219754;79;21064;-73
2022/02/19 07:07:22;;;;;;;6.03;2.05;;;;;;;7.29;41.76;98913.25;2216825;79;21529;-75
2022/02/19 07:10:24;;;;;;;5.58;1.65;;;;;;;7.10;42.24;98915.86;2233546;79;21558;-77
2022/02/19 07:13:29;;;;;;;5.67;1.60;;;;;;;6.82;41.62;98911.05;2231412;78;21077;-75
2022/02/19 07:16:32;;;;;;;8.48;1.70;;;;;;;6.61;42.00;98908.98;2235787;79;23013;-77
2022/02/19 07:19:35;;;;;;;4.60;1.65;;;;;;;6.36;42.45;98926.67;2238340;79;20938;-73
2022/02/19 07:22:37;;;;;;;7.08;1.98;;;;;;;6.25;42.74;98933.15;2236567;79;21066;-79
2022/02/19 07:25:40;;;;;;;3.80;1.30;;;;;;;6.69;42.84;98939.77;2234748;79;20990;-75
2022/02/19 07:28:41;;;;;;;5.58;1.85;;;;;;;6.75;42.05;98958.85;2236715;79;21556;-76
2022/02/19 07:31:43;;;;;;;3.52;1.35;;;;;;;6.58;42.48;98985.75;2237548;79;20994;-73
2022/02/19 07:34:45;;;;;;;4.37;1.42;;;;;;;6.41;42.83;98982.83;2239561;79;21084;-72
2022/02/19 07:37:47;;;;;;;3.75;1.30;;;;;;;6.33;42.97;98994.70;2234289;78;21457;-73
2022/02/19 07:40:53;;;;;;;7.15;1.95;;;;;;;6.31;42.94;98961.11;2232658;78;21563;-75
2022/02/19 07:43:55;;;;;;;3.83;1.40;;;;;;;6.50;42.27;98981.81;2230375;78;21053;-73
2022/02/19 07:46:58;;;;;;;3.95;1.87;;;;;;;6.88;42.92;98987.33;2232053;78;20999;-74
2022/02/19 08:00:11;;;;;;;4.67;1.93;;;;;;;7.67;40.64;98978.83;2229832;78;21595;-74
2022/02/19 08:03:21;;;;;;;3.67;1.40;;;;;;;7.76;40.58;99017.87;2225440;78;23002;-72
2022/02/19 08:06:24;;;;;;;4.25;1.62;;;;;;;7.90;41.09;99031.64;2229396;78;20964;-71
2022/02/19 08:09:27;;;;;;;5.95;1.67;;;;;;;7.95;40.68;99008.16;2229607;78;21041;-71
2022/02/19 08:12:30;;;;;;;6.10;1.72;;;;;;;7.88;41.48;99053.44;2231661;78;21575;-73
2022/02/19 08:15:34;;;;;;;4.72;1.40;;;;;;;8.05;41.10;99054.99;2233022;78;21096;-72
2022/02/19 08:18:37;;;;;;;4.35;1.55;;;;;;;7.91;40.04;99033.27;2230889;78;21073;-72
2022/02/19 08:21:38;;;;;;;3.87;1.25;;;;;;;7.77;40.80;99052.04;2231468;78;21016;-72
2022/02/19 08:24:40;;;;;;;4.53;1.57;;;;;;;7.98;40.64;99051.90;2232982;78;21566;-72
2022/02/19 08:27:41;;;;;;;4.22;1.40;;;;;;;8.27;40.16;99048.53;2231475;78;20995;-72
2022/02/19 08:30:46;;;;;;;4.80;1.70;;;;;;;8.27;40.74;99068.34;2232689;78;21018;-72
2022/02/19 08:33:47;;;;;;;2.77;1.27;;;;;;;8.36;40.62;99076.53;2231412;78;21050;-73
2022/02/19 08:36:55;;;;;;;4.42;1.40;;;;;;;8.24;40.51;99112.31;2229257;78;21424;-71
2022/02/19 08:39:52;;;;;;;6.37;1.30;;;;;;;7.89;40.91;99100.50;2230768;78;21037;-71
2022/02/19 08:42:54;;;;;;;3.22;1.10;;;;;;;7.68;41.13;99099.77;2235161;78;21016;-72
2022/02/19 08:45:55;;;;;;;5.78;1.60;;;;;;;7.43;41.40;99076.63;2231026;78;21034;-70
2022/02/19 08:48:57;;;;;;;3.52;1.40;;;;;;;7.27;41.46;99092.05;2234635;78;20975;-72
2022/02/19 08:52:00;;;;;;;4.40;1.90;;;;;;;7.23;42.02;99113.97;2232445;78;21041;-70
2022/02/19 08:55:02;;;;;;;4.17;1.87;;;;;;;7.18;41.90;99117.63;2235654;78;21482;-70
2022/02/19 08:58:03;;;;;;;3.52;1.70;;;;;;;7.16;42.72;99107.23;2233399;78;21026;-69
2022/02/19 09:01:05;;;;;;;5.85;1.40;;;;;;;7.28;42.48;99112.16;2234177;78;21002;-70
2022/02/19 10:16:05;;;;;;;3.22;1.57;;;;;;;7.23;43.99;99320.27;2262910;77;22292;-75
2022/02/19 10:19:08;;;;;;;8.38;2.30;;;;;;;7.20;44.48;99338.58;2231083;78;21048;-73
2022/02/19 10:22:11;;;;;;;3.62;1.50;;;;;;;7.12;44.13;99336.78;2220517;78;21024;-73
2022/02/19 10:25:24;;;;;;;3.02;1.60;;;;;;;7.09;44.40;99345.49;2225834;78;21028;-74
2022/02/19 10:28:28;;;;;;;5.20;1.85;;;;;;;7.05;44.76;99362.14;2231224;78;21016;-76
2022/02/19 10:31:30;;;;;;;4.97;2.12;;;;;;;6.98;45.04;99361.63;2230854;78;21511;-73
2022/02/19 10:34:32;;;;;;;4.17;1.90;;;;;;;6.91;44.92;99369.37;2222707;78;21036;-74
2022/02/19 10:37:48;;;;;;;4.15;1.70;;;;;;;6.84;44.93;99372.31;2231636;78;21005;-76
2022/02/19 10:40:57;;;;;;;4.45;1.50;;;;;;;6.79;44.67;99387.81;2227895;78;21013;-75
2022/02/19 10:43:55;;;;;;;6.35;2.12;;;;;;;6.73;44.70;99395.38;2230284;78;21653;-75
2022/02/19 10:47:19;;;;;;;2.33;1.32;;;;;;;6.70;45.28;99419.89;2230296;78;21507;-76
2022/02/19 10:50:21;;;;;;;7.25;1.55;;;;;;;6.70;45.56;99402.75;2227201;78;21476;-77
2022/02/19 10:53:26;;;;;;;4.28;1.87;;;;;;;6.74;45.29;99410.19;2185695;79;21055;-76
2022/02/19 10:56:28;;;;;;;2.35;1.50;;;;;;;6.78;45.88;99412.51;2186010;79;21542;-75
2022/02/19 10:59:31;;;;;;;6.33;1.70;;;;;;;6.77;45.71;99418.28;2210416;79;21044;-73
2022/02/19 11:02:33;;;;;;;5.67;1.42;;;;;;;6.77;45.50;99439.88;2213431;79;21064;-76
2022/02/19 11:05:36;;;;;;;3.83;1.57;;;;;;;6.69;45.05;99428.30;2208969;79;21020;-74
2022/02/19 11:08:42;;;;;;;5.30;1.60;;;;;;;6.63;45.49;99417.06;2170955;80;21552;-75
2022/02/19 11:11:47;;;;;;;6.65;2.02;;;;;;;6.58;45.32;99436.48;2170689;80;21124;-76
2022/02/19 11:14:49;;;;;;;4.85;1.55;;;;;;;6.58;45.99;99454.11;2152084;81;21116;-77
2022/02/19 11:17:55;;;;;;;7.45;2.05;;;;;;;6.61;46.38;99451.16;2165964;80;21480;-75
2022/02/19 11:20:57;;;;;;;4.55;2.20;;;;;;;6.62;46.26;99457.61;2139783;81;21065;-75
2022/02/19 11:24:06;;;;;;;5.80;1.75;;;;;;;6.63;46.38;99455.79;2147398;82;21033;-75
2022/02/19 11:27:09;;;;;;;5.80;2.70;;;;;;;6.64;46.12;99464.84;2147637;82;21093;-75
2022/02/19 11:30:13;;;;;;;2.87;1.45;;;;;;;6.63;46.17;99471.61;2149339;82;21064;-73
2022/02/19 11:33:19;;;;;;;8.55;3.00;;;;;;;6.60;45.45;99445.06;2170334;81;21033;-74
2022/02/19 11:36:28;;;;;;;3.87;2.02;;;;;;;6.54;45.90;99479.97;2141539;82;21069;-73
2022/02/19 11:39:33;;;;;;;2.90;1.30;;;;;;;6.51;45.61;99482.91;2168539;81;21080;-75
2022/02/19 11:42:50;;;;;;;6.17;1.82;;;;;;;6.49;45.23;99475.15;2097530;83;21022;-73
2022/02/19 11:45:54;;;;;;;8.40;2.80;;;;;;;6.48;45.78;99490.64;2130221;82;21480;-75
2022/02/19 11:48:56;;;;;;;6.78;2.58;;;;;;;6.47;45.94;99487.65;2126157;82;21072;-73
2022/02/19 11:52:15;;;;;;;5.53;2.22;;;;;;;6.47;46.59;99505.28;2168984;81;21049;-75
2022/02/19 11:55:31;;;;;;;6.80;2.02;;;;;;;6.46;46.67;99500.50;2161644;82;21030;-72
2022/02/19 11:58:49;;;;;;;5.03;2.02;;;;;;;6.45;45.84;99511.22;2155269;80;21018;-75
2022/02/19 12:02:23;;;;;;;5.55;1.90;;;;;;;6.46;45.89;99532.12;2148803;82;21037;-75
2022/02/19 12:05:29;;;;;;;5.10;1.90;;;;;;;6.42;46.12;99520.25;2148304;82;21531;-74
2022/02/19 12:09:03;;;;;;;2.92;1.47;;;;;;;6.42;46.00;99518.09;2145338;81;21063;-73
2022/02/19 12:12:10;;;;;;;5.85;1.72;;;;;;;6.43;46.60;99540.84;2168873;81;21100;-72
2022/02/19 12:15:28;;;;;;;4.92;2.00;;;;;;;6.48;46.68;99520.13;2177666;79;23083;-72
2022/02/19 12:18:49;;;;;;;6.00;2.00;;;;;;;6.48;46.13;99533.30;2183379;79;21014;-72
2022/02/19 12:21:51;;;;;;;5.12;1.90;;;;;;;6.45;46.34;99541.53;2183914;79;21048;-73
2022/02/19 12:24:54;;;;;;;5.60;2.02;;;;;;;6.40;45.69;99530.61;2184542;79;21064;-75
2022/02/19 12:28:19;;;;;;;7.30;2.10;;;;;;;6.37;46.17;99540.15;2185601;79;21602;-75
2022/02/19 12:31:29;;;;;;;3.85;1.57;;;;;;;6.34;46.64;99548.36;2183848;79;22079;-73
2022/02/19 12:34:31;;;;;;;6.15;2.55;;;;;;;6.29;46.48;99544.86;2147109;81;21042;-73
2022/02/19 12:37:36;;;;;;;10.32;2.80;;;;;;;6.29;46.53;99571.20;2146927;81;20993;-74
2022/02/19 12:40:38;;;;;;;7.37;2.30;;;;;;;6.29;46.80;99547.00;2155192;81;21263;-74
2022/02/19 12:43:40;;;;;;;5.08;2.08;;;;;;;6.27;46.55;99570.02;2181077;79;21635;-73
2022/02/19 12:46:43;;;;;;;6.28;1.55;;;;;;;6.24;46.50;99580.88;2145133;81;21059;-75
2022/02/19 12:49:45;;;;;;;4.60;2.65;;;;;;;6.21;46.75;99585.12;2155459;81;21038;-75
2022/02/19 12:52:52;;;;;;;6.72;2.00;;;;;;;6.18;45.92;99585.44;2186441;79;21021;-74
2022/02/19 12:55:57;;;;;;;7.87;2.58;;;;;;;6.16;45.93;99572.89;2158072;80;21060;-74
2022/02/19 12:59:01;;;;;;;5.17;2.02;;;;;;;6.16;46.14;99601.88;2213461;79;21599;-75
2022/02/19 13:02:08;;;;;;;3.72;1.77;;;;;;;6.16;46.36;99603.19;2169663;80;21113;-74
2022/02/19 13:05:12;;;;;;;4.75;2.27;;;;;;;6.18;46.35;99611.78;2213972;79;21012;-75
2022/02/19 13:08:14;;;;;;;10.63;2.22;;;;;;;6.19;46.09;99610.79;2211859;79;20997;-75
2022/02/19 13:11:16;;;;;;;9.50;2.80;;;;;;;6.21;45.77;99619.37;2143675;81;21025;-77
2022/02/19 13:14:22;;;;;;;5.90;2.47;;;;;;;6.22;45.87;99622.38;2153534;79;21119;-75
2022/02/19 13:17:27;;;;;;;4.92;1.70;;;;;;;6.22;46.22;99619.73;2182555;79;21060;-74
2022/02/19 13:20:31;;;;;;;6.58;2.25;;;;;;;6.23;45.75;99630.60;2184752;79;21325;-74
2022/02/19 13:23:33;;;;;;;4.75;1.70;;;;;;;6.26;45.55;99626.34;2180151;79;21064;-74
2022/02/19 13:26:40;;;;;;;4.47;1.92;;;;;;;6.25;45.41;99631.29;2179326;79;21025;-75
2022/02/19 13:29:57;;;;;;;9.03;2.08;;;;;;;6.25;45.44;99634.39;2181587;79;21555;-75
2022/02/19 13:32:59;;;;;;;5.15;1.90;;;;;;;6.24;46.10;99649.38;2182829;79;21017;-74
2022/02/19 13:36:03;;;;;;;6.17;2.10;;;;;;;6.26;45.69;99647.92;2183440;79;21507;-77
2022/02/19 13:39:17;;;;;;;4.85;1.72;;;;;;;6.28;46.09;99659.97;2183337;79;20977;-75
2022/02/19 13:42:39;;;;;;;3.80;1.95;;;;;;;6.29;45.20;99630.00;2210215;79;21069;-80
2022/02/19 13:45:48;;;;;;;6.70;1.80;;;;;;;6.30;45.46;99647.94;2143084;81;21060;-81
2022/02/19 13:48:55;;;;;;;3.08;1.77;;;;;;;6.28;44.79;99652.56;2160684;81;21024;-77
2022/02/19 13:51:59;;;;;;;6.62;1.90;;;;;;;6.26;45.25;99671.63;2168608;80;21881;-73
2022/02/19 13:55:10;;;;;;;6.22;2.33;;;;;;;6.24;44.56;99670.95;2133056;80;21021;-77
2022/02/19 13:58:22;;;;;;;4.10;1.80;;;;;;;6.23;45.03;99674.56;2154274;80;21035;-77
2022/02/19 14:01:26;;;;;;;4.78;1.80;;;;;;;6.19;44.42;99675.33;2186776;79;21061;-79
2022/02/19 14:04:34;;;;;;;8.45;2.37;;;;;;;6.18;45.23;99688.67;2210973;79;21566;-82
2022/02/19 14:08:00;;;;;;;5.67;2.22;;;;;;;6.14;45.32;99697.38;2215215;79;21490;-80
2022/02/19 14:11:05;;;;;;;6.62;2.37;;;;;;;6.14;44.81;99682.03;2216121;79;21053;-81
2022/02/19 14:14:06;;;;;;;6.15;2.02;;;;;;;6.15;45.72;99713.50;2186943;79;21064;-79
2022/02/19 14:17:18;;;;;;;11.40;2.15;;;;;;;6.15;45.50;99695.06;2212492;79;21048;-73
2022/02/19 14:20:29;;;;;;;5.20;2.35;;;;;;;6.15;45.26;99697.70;2212753;79;21037;-79
2022/02/19 14:23:31;;;;;;;5.50;1.92;;;;;;;6.14;45.08;99709.22;2215804;79;21016;-81
2022/02/19 14:26:33;;;;;;;10.55;4.53;;;;;;;6.16;45.35;99716.47;2213993;79;22201;-78
2022/02/19 14:29:34;;;;;;;8.63;2.85;;;;;;;6.15;45.51;99706.09;2214834;79;21053;-77
2022/02/19 14:32:38;;;;;;;2.98;1.85;;;;;;;6.14;45.81;99732.94;2216491;79;21036;-78
2022/02/19 14:35:43;;;;;;;6.20;2.47;;;;;;;6.13;46.02;99725.16;2214437;79;20997;-76
2022/02/19 14:38:47;;;;;;;8.23;3.02;;;;;;;6.12;46.02;99743.27;2211029;79;20973;-77
2022/02/19 14:41:52;;;;;;;7.65;2.58;;;;;;;6.11;45.85;99737.19;2215956;79;21064;-74
2022/02/19 14:44:54;;;;;;;5.33;2.17;;;;;;;6.12;45.89;99743.27;2210043;79;21076;-78
2022/02/19 14:47:56;;;;;;;4.95;2.00;;;;;;;6.12;46.16;99750.68;2211086;79;21452;-79
2022/02/19 14:51:01;;;;;;;4.72;1.80;;;;;;;6.11;46.37;99733.23;2216232;79;21051;-77
2022/02/19 14:54:02;;;;;;;5.65;2.30;;;;;;;6.13;46.26;99756.28;2213713;79;21028;-75
2022/02/19 14:57:07;;;;;;;5.42;2.05;;;;;;;6.12;46.53;99762.53;2215295;79;21017;-80
2022/02/19 15:00:11;;;;;;;6.05;2.55;;;;;;;6.11;46.60;99744.23;2219511;79;20977;-78
2022/02/19 15:03:15;;;;;;;4.87;2.37;;;;;;;6.06;46.72;99757.86;2212612;79;21036;-75
2022/02/19 15:06:20;;;;;;;3.77;1.90;;;;;;;6.06;46.60;99747.32;2210769;79;21017;-75
2022/02/19 15:09:22;;;;;;;4.05;2.05;;;;;;;6.08;46.80;99753.74;2213719;79;21316;-76
2022/02/19 15:12:26;;;;;;;7.37;2.30;;;;;;;6.06;46.42;99743.38;2211088;79;21020;-78
2022/02/19 15:15:30;;;;;;;6.67;2.00;;;;;;;6.04;46.98;99759.31;2211367;79;21417;-77
2022/02/19 15:18:32;;;;;;;3.75;1.57;;;;;;;6.02;47.24;99764.37;2216549;79;21093;-77
2022/02/19 15:21:34;;;;;;;4.58;1.75;;;;;;;5.98;47.47;99765.66;2215979;79;21526;-90
2022/02/19 15:24:38;;;;;;;7.08;2.08;;;;;;;5.97;47.52;99765.30;2215891;79;21088;-76
2022/02/19 15:27:43;;;;;;;5.33;2.60;;;;;;;5.95;47.11;99772.05;2212450;79;21045;-77
2022/02/19 15:30:45;;;;;;;8.40;2.58;;;;;;;5.98;47.67;99776.19;2209209;79;21014;-79
2022/02/19 15:33:47;;;;;;;7.58;2.30;;;;;;;6.02;47.58;99761.74;2212492;79;21103;-81
2022/02/19 15:36:50;;;;;;;5.33;2.52;;;;;;;6.09;47.50;99773.37;2215395;79;20997;-80
2022/02/19 15:39:53;;;;;;;4.58;1.87;;;;;;;6.13;47.30;99784.44;2211890;79;21518;-79
2022/02/19 15:43:00;;;;;;;7.28;2.52;;;;;;;6.08;47.21;99788.81;2213819;79;21085;-78
2022/02/19 15:46:07;;;;;;;8.63;2.83;;;;;;;6.00;47.49;99800.09;2214170;79;21052;-79
2022/02/19 15:49:08;;;;;;;5.20;2.40;;;;;;;5.89;47.63;99809.47;2213325;79;21037;-79
2022/02/19 15:52:10;;;;;;;3.58;2.10;;;;;;;5.81;47.95;99820.70;2213636;79;21037;-79
2022/02/19 15:55:12;;;;;;;5.72;2.37;;;;;;;5.74;47.74;99810.87;2216224;79;22218;-77
2022/02/19 15:58:14;;;;;;;6.62;2.10;;;;;;;5.67;48.05;99827.74;2213333;79;21001;-77
2022/02/19 16:01:16;;;;;;;7.42;1.90;;;;;;;5.67;48.60;99827.74;2211991;79;21034;-78